Time;durP1;ratioP1;P1;durP2;ratioP2;P2;SDS_P1;SDS_P2;PMS_P1;PMS_P2;Temp;Humidity;BMP_temperature;BMP_pressure;BME280_temperature;BME280_humidity;BME280_pressure;Samples;Min_cycle;Max_cycle;Signal;HPM_P1;HPM_P2
2021/05/22 00:00:33;;;;;;;2.58;0.68;;;11.60;70.50;;;;;;2072922;28;20121;-84
2021/05/22 00:01:33;;;;;;;1.77;0.80;;;11.60;70.60;;;;;;2080530;28;20026;-84
2021/05/22 00:02:34;;;;;;;3.95;0.70;;;11.60;70.70;;;;;;2080942;28;20040;-84
2021/05/22 00:03:35;;;;;;;2.90;0.68;;;11.60;70.70;;;;;;2073279;28;20077;-85
2021/05/22 00:04:35;;;;;;;2.45;0.52;;;11.60;70.80;;;;;;2076643;28;20161;-84
2021/05/22 00:05:36;;;;;;;3.42;0.80;;;11.60;70.80;;;;;;2081268;28;20056;-84
2021/05/22 00:06:37;;;;;;;4.47;0.90;;;11.60;70.80;;;;;;2073185;28;20029;-85
2021/05/22 00:07:38;;;;;;;3.53;0.88;;;11.60;70.90;;;;;;2056909;28;20027;-85
2021/05/22 00:08:38;;;;;;;4.03;0.90;;;11.60;70.90;;;;;;2057125;28;20150;-85
2021/05/22 00:09:39;;;;;;;3.40;0.70;;;11.60;71.00;;;;;;2065144;28;20121;-84
2021/05/22 00:10:40;;;;;;;1.58;0.63;;;11.60;71.00;;;;;;2072895;28;20028;-85
2021/05/22 00:11:41;;;;;;;3.03;0.75;;;11.50;71.00;;;;;;2073177;28;20022;-85
2021/05/22 00:12:43;;;;;;;3.40;0.60;;;11.50;71.10;;;;;;2081111;28;20502;-84
2021/05/22 00:13:44;;;;;;;3.92;0.73;;;11.60;71.10;;;;;;2073217;28;20026;-85
2021/05/22 00:14:46;;;;;;;1.48;0.68;;;11.50;71.10;;;;;;2065079;28;20053;-85
2021/05/22 00:15:46;;;;;;;1.77;0.55;;;11.50;71.20;;;;;;2065064;28;20030;-85
2021/05/22 00:16:47;;;;;;;2.72;0.55;;;11.50;71.20;;;;;;2073083;28;20069;-85
2021/05/22 00:17:48;;;;;;;2.63;0.80;;;11.50;71.20;;;;;;2064216;28;20022;-84
2021/05/22 00:18:48;;;;;;;2.78;0.75;;;11.50;71.30;;;;;;2064945;28;20046;-84
2021/05/22 00:19:49;;;;;;;4.25;0.75;;;11.50;71.30;;;;;;2072835;28;20448;-85
2021/05/22 00:20:50;;;;;;;3.08;0.77;;;11.50;71.40;;;;;;2081119;28;20426;-85
2021/05/22 00:21:50;;;;;;;4.68;0.98;;;11.50;71.40;;;;;;2072597;28;20053;-85
2021/05/22 00:22:51;;;;;;;5.40;1.00;;;11.50;71.40;;;;;;2064800;28;20042;-85
2021/05/22 00:23:52;;;;;;;3.13;0.85;;;11.50;71.30;;;;;;2064891;28;20027;-84
2021/05/22 00:24:53;;;;;;;2.92;0.70;;;11.50;71.30;;;;;;2064869;28;20078;-85
2021/05/22 00:25:54;;;;;;;4.25;0.85;;;11.40;71.30;;;;;;2065084;28;20019;-85
2021/05/22 00:26:55;;;;;;;2.33;0.68;;;11.50;71.30;;;;;;2073003;28;20057;-85
2021/05/22 00:27:55;;;;;;;2.90;0.65;;;11.50;71.30;;;;;;2073031;28;20479;-84
2021/05/22 00:28:56;;;;;;;2.70;0.70;;;11.50;71.30;;;;;;2081230;28;20128;-85
2021/05/22 00:29:56;;;;;;;5.05;0.70;;;11.50;71.30;;;;;;2072897;28;20061;-85
2021/05/22 00:30:57;;;;;;;2.10;0.70;;;11.50;71.30;;;;;;2081059;28;20025;-84
2021/05/22 00:31:58;;;;;;;6.07;1.13;;;11.50;71.30;;;;;;2064983;28;20117;-84
2021/05/22 00:32:58;;;;;;;3.03;0.77;;;11.50;71.30;;;;;;2064122;28;20035;-85
2021/05/22 00:33:59;;;;;;;3.35;0.70;;;11.50;71.20;;;;;;2074185;28;20025;-85
2021/05/22 00:35:00;;;;;;;5.40;0.80;;;11.50;71.10;;;;;;2071422;28;20103;-85
2021/05/22 00:36:02;;;;;;;2.47;0.80;;;11.50;71.10;;;;;;2080689;28;20036;-85
2021/05/22 00:37:02;;;;;;;4.22;0.70;;;11.50;71.10;;;;;;2064231;28;20405;-85
2021/05/22 00:38:03;;;;;;;3.75;1.00;;;11.50;71.20;;;;;;2057192;28;20031;-84
2021/05/22 00:39:05;;;;;;;2.22;0.77;;;11.50;71.10;;;;;;2064399;28;20520;-85
2021/05/22 00:40:07;;;;;;;3.03;0.95;;;11.50;71.00;;;;;;2057143;28;20066;-85
2021/05/22 00:41:08;;;;;;;3.28;0.70;;;11.50;71.00;;;;;;2065177;28;20030;-84
2021/05/22 00:42:08;;;;;;;2.75;0.60;;;11.50;71.00;;;;;;2072836;28;20117;-85
2021/05/22 00:43:09;;;;;;;4.00;0.90;;;11.50;70.90;;;;;;2072916;28;20044;-85
2021/05/22 00:44:10;;;;;;;3.80;0.80;;;11.50;70.90;;;;;;2056646;28;20034;-85
2021/05/22 00:45:19;;;;;;;3.58;0.93;;;11.50;70.90;;;;;;2048820;28;20038;-85
2021/05/22 00:46:20;;;;;;;5.75;0.88;;;11.50;70.90;;;;;;2067029;28;20078;-85
2021/05/22 00:47:21;;;;;;;3.80;0.90;;;11.50;70.80;;;;;;2081224;28;20026;-85
2021/05/22 00:48:22;;;;;;;2.45;0.70;;;11.50;70.80;;;;;;2072950;28;20498;-85
2021/05/22 00:49:23;;;;;;;3.28;0.73;;;11.50;70.70;;;;;;2072939;28;20022;-85
2021/05/22 00:50:31;;;;;;;2.85;0.77;;;11.50;70.70;;;;;;2076065;28;20113;-84
2021/05/22 00:51:32;;;;;;;2.83;0.80;;;11.50;70.70;;;;;;2073914;28;20100;-85
2021/05/22 00:52:33;;;;;;;2.78;0.95;;;11.50;70.60;;;;;;2072840;28;20068;-85
2021/05/22 00:53:34;;;;;;;3.95;0.90;;;11.50;70.60;;;;;;2064293;28;20456;-85
2021/05/22 00:54:34;;;;;;;3.45;0.80;;;11.50;70.60;;;;;;2070829;28;20491;-84
2021/05/22 00:55:35;;;;;;;3.25;0.90;;;11.50;70.50;;;;;;2064462;28;20416;-84
2021/05/22 00:56:36;;;;;;;5.22;0.90;;;11.50;70.50;;;;;;2064569;28;20019;-85
2021/05/22 00:57:39;;;;;;;2.92;0.73;;;11.50;70.60;;;;;;2064710;28;20382;-84
2021/05/22 00:58:40;;;;;;;2.80;0.70;;;11.50;70.50;;;;;;2081519;28;20025;-84
2021/05/22 00:59:41;;;;;;;3.17;0.75;;;11.50;70.50;;;;;;2080649;28;20127;-84
2021/05/22 01:00:51;;;;;;;2.88;0.70;;;11.50;70.50;;;;;;2056807;28;20473;-85
2021/05/22 01:01:51;;;;;;;3.17;0.93;;;11.50;70.50;;;;;;2068538;28;20157;-84
2021/05/22 01:02:52;;;;;;;3.03;0.70;;;11.50;70.50;;;;;;2072878;28;20041;-85
2021/05/22 01:03:53;;;;;;;3.75;0.73;;;11.50;70.50;;;;;;2056815;28;20457;-84
2021/05/22 01:04:56;;;;;;;2.55;0.50;;;11.50;70.50;;;;;;2064859;28;20034;-84
2021/05/22 01:06:16;;;;;;;2.00;0.50;;;11.50;70.50;;;;;;2073113;28;20018;-85
2021/05/22 01:07:18;;;;;;;3.78;0.80;;;11.50;70.50;;;;;;2075460;28;20033;-85
2021/05/22 01:08:23;;;;;;;3.08;0.70;;;11.50;70.50;;;;;;2072950;28;20081;-85
2021/05/22 01:09:24;;;;;;;3.13;0.70;;;11.50;70.40;;;;;;2065578;28;20025;-85
2021/05/22 01:10:25;;;;;;;3.53;0.80;;;11.50;70.40;;;;;;2072803;28;20037;-85
2021/05/22 01:11:31;;;;;;;2.25;0.68;;;11.50;70.40;;;;;;2071600;28;20026;-84
2021/05/22 01:12:36;;;;;;;4.45;0.80;;;11.50;70.40;;;;;;2072747;28;20030;-84
2021/05/22 01:13:38;;;;;;;5.05;0.90;;;11.50;70.40;;;;;;2065447;28;20486;-85
2021/05/22 01:14:45;;;;;;;5.45;1.00;;;11.50;70.40;;;;;;2072952;28;20014;-85
2021/05/22 01:15:50;;;;;;;3.70;0.70;;;11.50;70.40;;;;;;2072908;28;20535;-85
2021/05/22 01:16:54;;;;;;;5.07;1.02;;;11.50;70.30;;;;;;2073456;28;20026;-85
2021/05/22 01:17:54;;;;;;;2.03;0.60;;;11.50;70.30;;;;;;2072662;28;20104;-85
2021/05/22 01:18:58;;;;;;;8.65;1.00;;;11.50;70.30;;;;;;2064707;28;20031;-84
2021/05/22 01:20:09;;;;;;;5.05;0.70;;;11.50;70.30;;;;;;2073912;28;20062;-84
2021/05/22 01:21:10;;;;;;;;;;;11.50;70.20;;;;;;2081316;28;20112;-85
2021/05/22 01:22:12;;;;;;;4.20;0.90;;;11.50;70.20;;;;;;2081119;28;19932;-84
2021/05/22 01:23:21;;;;;;;3.20;0.70;;;11.50;70.20;;;;;;2081252;28;20084;-85
2021/05/22 01:24:24;;;;;;;4.57;0.77;;;11.50;70.80;;;;;;2073593;28;20026;-85
2021/05/22 01:25:29;;;;;;;4.85;0.80;;;11.40;70.10;;;;;;2065551;28;20026;-85
2021/05/22 01:26:31;;;;;;;4.32;0.70;;;11.50;70.10;;;;;;2065948;28;20031;-85
2021/05/22 01:27:32;;;;;;;4.20;1.15;;;11.50;70.20;;;;;;2081302;28;20010;-84
2021/05/22 01:28:36;;;;;;;3.05;0.82;;;11.50;70.20;;;;;;2092044;28;20032;-83
2021/05/22 01:29:37;;;;;;;2.80;0.63;;;11.50;70.20;;;;;;2087411;28;20030;-84
2021/05/22 01:30:38;;;;;;;3.47;0.90;;;11.50;70.10;;;;;;2075394;28;20087;-83
2021/05/22 01:31:39;;;;;;;3.67;0.68;;;11.50;70.10;;;;;;2067727;28;20038;-83
2021/05/22 01:32:40;;;;;;;1.85;0.57;;;11.50;70.10;;;;;;2075664;28;20122;-83
2021/05/22 01:33:41;;;;;;;2.42;0.60;;;11.50;70.10;;;;;;2078591;28;20057;-85
2021/05/22 01:34:41;;;;;;;2.70;0.70;;;11.50;70.20;;;;;;2073877;28;20021;-85
2021/05/22 01:35:42;;;;;;;2.05;0.47;;;11.50;70.20;;;;;;2057756;28;20513;-84
2021/05/22 01:36:43;;;;;;;3.40;0.70;;;11.50;70.20;;;;;;2065276;28;20513;-85
2021/05/22 01:37:44;;;;;;;2.88;0.63;;;11.50;70.20;;;;;;2071894;28;20035;-84
2021/05/22 01:38:45;;;;;;;4.53;0.80;;;11.50;70.20;;;;;;2075499;28;20050;-83
2021/05/22 01:39:45;;;;;;;2.28;0.55;;;11.50;70.20;;;;;;2083709;28;20025;-83
2021/05/22 01:40:46;;;;;;;2.70;0.60;;;11.50;70.20;;;;;;2091376;28;20025;-84
2021/05/22 01:41:47;;;;;;;2.53;0.60;;;11.50;70.20;;;;;;2091356;28;20087;-84
2021/05/22 01:42:48;;;;;;;2.83;0.70;;;11.50;70.20;;;;;;2087515;28;20033;-85
2021/05/22 01:43:53;;;;;;;2.35;0.60;;;11.50;70.80;;;;;;2072813;28;20022;-85
2021/05/22 01:44:54;;;;;;;2.33;0.60;;;11.50;70.30;;;;;;2073171;28;20032;-85
2021/05/22 01:45:56;;;;;;;2.45;0.73;;;11.40;70.20;;;;;;2072866;28;20026;-85
2021/05/22 01:46:58;;;;;;;4.20;0.90;;;11.50;70.30;;;;;;2057394;28;20046;-84
2021/05/22 01:48:02;;;;;;;3.80;0.68;;;11.50;70.80;;;;;;2057841;28;20026;-85
2021/05/22 01:49:04;;;;;;;3.22;0.70;;;11.40;70.20;;;;;;2066313;28;20039;-85
2021/05/22 01:50:05;;;;;;;1.85;0.93;;;11.40;70.20;;;;;;2058513;28;20022;-85
2021/05/22 01:51:09;;;;;;;2.95;0.57;;;11.40;70.20;;;;;;2066215;28;20025;-85
2021/05/22 01:52:10;;;;;;;3.75;0.90;;;11.40;70.30;;;;;;2066521;28;20109;-85
2021/05/22 01:53:13;;;;;;;3.03;0.85;;;11.40;70.20;;;;;;2065197;28;20053;-85
2021/05/22 01:54:16;;;;;;;2.83;0.70;;;11.40;70.20;;;;;;2059620;28;20481;-85
2021/05/22 01:55:18;;;;;;;2.80;0.63;;;11.40;70.20;;;;;;2058869;28;20035;-85
2021/05/22 01:56:19;;;;;;;2.60;0.85;;;11.40;70.20;;;;;;2067193;28;20023;-84
2021/05/22 01:57:20;;;;;;;3.08;0.65;;;11.40;70.30;;;;;;2075206;28;20069;-84
2021/05/22 01:58:22;;;;;;;2.50;0.70;;;11.40;70.20;;;;;;2065515;28;20030;-80
2021/05/22 01:59:23;;;;;;;1.50;0.60;;;11.40;70.30;;;;;;2068949;28;20019;-83
2021/05/22 02:00:26;;;;;;;3.08;0.77;;;11.40;70.30;;;;;;2068971;28;20124;-82
2021/05/22 02:01:27;;;;;;;4.13;1.00;;;11.40;70.30;;;;;;2069084;28;20025;-84
2021/05/22 02:02:28;;;;;;;4.30;0.90;;;11.40;70.30;;;;;;2068885;28;20026;-83
2021/05/22 02:03:47;;;;;;;3.45;0.82;;;11.40;70.30;;;;;;2066304;28;20107;-85
2021/05/22 02:04:49;;;;;;;3.22;0.85;;;11.40;70.30;;;;;;2066577;28;20029;-85
2021/05/22 02:05:53;;;;;;;3.17;0.73;;;11.40;70.30;;;;;;2074149;28;20038;-85
2021/05/22 02:06:55;;;;;;;3.60;0.65;;;11.40;70.30;;;;;;2073943;28;20022;-84
2021/05/22 02:07:59;;;;;;;3.58;0.70;;;11.40;70.30;;;;;;2058038;28;20081;-85
2021/05/22 02:09:02;;;;;;;2.50;0.60;;;11.40;70.30;;;;;;2059082;28;20031;-85
2021/05/22 02:10:05;;;;;;;3.08;0.82;;;11.40;70.30;;;;;;2073789;28;20080;-85
2021/05/22 02:11:07;;;;;;;3.33;0.70;;;11.40;70.30;;;;;;2065331;28;20551;-85
2021/05/22 02:12:08;;;;;;;3.13;0.68;;;11.40;70.40;;;;;;2066206;28;20482;-86
2021/05/22 02:13:09;;;;;;;3.13;0.88;;;11.40;70.40;;;;;;2074012;28;20064;-85
2021/05/22 02:14:16;;;;;;;5.85;0.70;;;11.40;70.40;;;;;;2065991;28;20042;-85
2021/05/22 02:15:19;;;;;;;3.95;1.17;;;11.40;70.50;;;;;;2066663;28;20468;-85
2021/05/22 02:16:25;;;;;;;2.30;0.65;;;11.40;70.50;;;;;;2066271;28;20022;-85
2021/05/22 02:17:27;;;;;;;4.13;1.10;;;11.40;70.50;;;;;;2073730;28;20014;-85
2021/05/22 02:18:31;;;;;;;1.83;0.57;;;11.40;70.60;;;;;;2057851;28;20489;-85
2021/05/22 02:19:32;;;;;;;3.28;0.70;;;11.40;70.60;;;;;;2051259;28;20051;-85
2021/05/22 02:20:34;;;;;;;2.63;0.80;;;11.40;70.60;;;;;;2073853;28;20041;-85
2021/05/22 02:21:37;;;;;;;4.18;1.10;;;11.40;70.70;;;;;;2074000;28;20033;-85
2021/05/22 02:22:40;;;;;;;3.30;0.80;;;11.30;70.60;;;;;;2070958;28;20091;-85
2021/05/22 02:23:48;;;;;;;2.65;0.77;;;11.40;70.70;;;;;;2073643;28;20022;-85
2021/05/22 02:24:50;;;;;;;2.58;0.70;;;11.40;70.70;;;;;;2074666;28;20014;-85
2021/05/22 02:25:56;;;;;;;2.72;0.80;;;11.40;70.70;;;;;;2073739;28;20014;-85
2021/05/22 02:26:58;;;;;;;3.50;0.70;;;11.40;70.70;;;;;;2074052;28;20125;-85
2021/05/22 02:28:05;;;;;;;3.35;0.60;;;11.40;70.70;;;;;;2057630;28;20063;-85
2021/05/22 02:29:10;;;;;;;4.20;0.80;;;11.40;70.80;;;;;;2060523;28;20031;-85
2021/05/22 02:30:14;;;;;;;2.20;0.63;;;11.30;70.70;;;;;;2081774;28;20080;-85
2021/05/22 02:31:17;;;;;;;2.55;0.50;;;11.30;70.70;;;;;;2073900;28;20468;-85
2021/05/22 02:32:18;;;;;;;2.35;0.52;;;11.30;70.80;;;;;;2065878;28;20042;-83
2021/05/22 02:33:19;;;;;;;2.13;0.60;;;11.40;71.00;;;;;;2057957;28;20408;-85
2021/05/22 02:34:29;;;;;;;1.58;0.45;;;11.30;70.90;;;;;;2057876;28;20046;-85
2021/05/22 02:35:32;;;;;;;2.80;0.70;;;11.30;71.00;;;;;;2067258;28;20022;-85
2021/05/22 02:36:34;;;;;;;1.98;0.50;;;11.30;71.00;;;;;;2065839;28;20031;-85
2021/05/22 02:37:36;;;;;;;3.10;0.90;;;11.30;71.10;;;;;;2065411;28;20031;-85
2021/05/22 02:38:47;;;;;;;2.60;0.60;;;11.30;71.10;;;;;;2068216;28;20031;-85
2021/05/22 02:39:53;;;;;;;3.53;0.60;;;11.30;71.20;;;;;;2059015;28;20042;-85
2021/05/22 02:40:59;;;;;;;2.05;0.50;;;11.30;71.20;;;;;;2067332;28;20504;-85
2021/05/22 02:42:03;;;;;;;3.30;0.70;;;11.20;71.20;;;;;;2081319;28;20044;-85
2021/05/22 02:43:07;;;;;;;3.63;0.70;;;11.20;71.20;;;;;;2082006;28;20044;-85
2021/05/22 02:44:09;;;;;;;3.10;0.70;;;11.30;71.20;;;;;;2073638;28;20029;-85
2021/05/22 02:45:11;;;;;;;3.47;0.70;;;11.20;71.30;;;;;;2073844;28;20317;-85
2021/05/22 02:46:14;;;;;;;3.17;0.80;;;11.20;71.30;;;;;;2057502;28;20114;-84
2021/05/22 02:47:16;;;;;;;4.82;0.80;;;11.30;71.50;;;;;;2066971;28;20059;-85
2021/05/22 02:48:20;;;;;;;4.93;0.68;;;11.20;71.40;;;;;;2073713;28;20032;-85
2021/05/22 02:49:26;;;;;;;1.77;0.73;;;11.20;71.40;;;;;;2066153;28;20035;-85
2021/05/22 02:50:29;;;;;;;2.50;0.57;;;11.20;71.50;;;;;;2066425;28;20018;-85
2021/05/22 02:51:30;;;;;;;3.28;0.80;;;11.20;71.50;;;;;;2073806;28;20365;-85
2021/05/22 02:52:33;;;;;;;2.15;0.55;;;11.20;71.50;;;;;;2073630;28;20029;-85
2021/05/22 02:53:36;;;;;;;2.55;0.55;;;11.20;71.60;;;;;;2065666;28;20038;-85
2021/05/22 02:54:39;;;;;;;2.72;0.60;;;11.20;71.60;;;;;;2077975;28;20543;-85
2021/05/22 02:55:42;;;;;;;3.42;0.73;;;11.20;71.60;;;;;;2081835;28;20124;-85
2021/05/22 02:56:43;;;;;;;2.63;0.80;;;11.20;71.70;;;;;;2073599;28;20065;-85
2021/05/22 02:57:47;;;;;;;3.35;0.70;;;11.20;71.70;;;;;;2057187;28;20031;-84
2021/05/22 02:58:49;;;;;;;1.75;0.60;;;11.20;71.70;;;;;;2058196;28;20035;-85
2021/05/22 02:59:51;;;;;;;2.65;0.50;;;11.20;71.70;;;;;;2072810;28;20033;-85
2021/05/22 03:00:52;;;;;;;1.40;0.50;;;11.20;71.70;;;;;;2065499;28;20117;-85
2021/05/22 03:01:54;;;;;;;3.42;0.63;;;11.20;71.70;;;;;;2057761;28;20030;-85
2021/05/22 03:02:55;;;;;;;2.85;0.75;;;11.20;71.80;;;;;;2065165;28;20121;-85
2021/05/22 03:03:56;;;;;;;2.83;0.70;;;11.20;71.70;;;;;;2065530;28;20512;-85
2021/05/22 03:04:57;;;;;;;3.30;0.70;;;11.20;71.80;;;;;;2065730;28;20409;-84
2021/05/22 03:06:02;;;;;;;2.58;0.50;;;11.20;71.80;;;;;;2073825;28;20029;-85
2021/05/22 03:07:04;;;;;;;2.78;0.70;;;11.20;72.40;;;;;;2073641;28;20029;-84
2021/05/22 03:08:05;;;;;;;3.00;0.57;;;11.20;71.80;;;;;;2073832;28;20407;-84
2021/05/22 03:09:06;;;;;;;1.38;0.60;;;11.20;71.80;;;;;;2074231;28;20056;-85
2021/05/22 03:10:07;;;;;;;2.65;0.70;;;11.20;71.80;;;;;;2065649;28;20121;-85
2021/05/22 03:11:08;;;;;;;3.20;0.60;;;11.20;71.90;;;;;;2057804;28;20043;-85
2021/05/22 03:12:14;;;;;;;3.60;0.60;;;11.30;72.00;;;;;;2072821;28;20025;-85
2021/05/22 03:13:14;;;;;;;3.35;0.70;;;11.20;72.10;;;;;;2073688;28;20069;-84
2021/05/22 03:14:15;;;;;;;2.38;0.65;;;11.20;72.10;;;;;;2065508;28;20041;-84
2021/05/22 03:15:16;;;;;;;1.95;0.60;;;11.20;72.20;;;;;;2073673;28;20063;-84
2021/05/22 03:16:17;;;;;;;2.20;0.68;;;11.20;72.20;;;;;;2081766;28;20587;-85
2021/05/22 03:17:18;;;;;;;3.45;0.50;;;11.20;72.30;;;;;;2081659;28;20028;-85
2021/05/22 03:18:19;;;;;;;3.42;0.98;;;11.20;72.30;;;;;;2073417;28;20054;-85
2021/05/22 03:19:19;;;;;;;2.60;0.70;;;11.20;72.40;;;;;;2073821;28;20492;-84
2021/05/22 03:20:20;;;;;;;4.10;0.60;;;11.20;72.50;;;;;;2065187;28;20421;-85
2021/05/22 03:21:21;;;;;;;3.50;0.80;;;11.20;72.50;;;;;;2057583;28;20433;-85
2021/05/22 03:22:22;;;;;;;4.95;0.65;;;11.20;72.50;;;;;;2057256;28;20128;-85
2021/05/22 03:23:24;;;;;;;3.05;0.77;;;11.20;72.50;;;;;;2065452;28;20034;-85
2021/05/22 03:24:25;;;;;;;1.95;0.50;;;11.20;72.50;;;;;;2065514;28;20029;-85
2021/05/22 03:25:25;;;;;;;3.15;0.55;;;11.20;72.50;;;;;;2065703;28;20106;-84
2021/05/22 03:26:27;;;;;;;3.50;0.77;;;11.20;72.50;;;;;;2064529;28;20048;-84
2021/05/22 03:27:28;;;;;;;3.53;0.60;;;11.20;72.40;;;;;;2064878;28;20097;-85
2021/05/22 03:28:28;;;;;;;3.50;0.80;;;11.20;72.40;;;;;;2056639;28;20536;-85
2021/05/22 03:29:29;;;;;;;4.93;0.60;;;11.20;72.40;;;;;;2065382;28;20061;-85
2021/05/22 03:30:30;;;;;;;3.10;0.60;;;11.20;72.30;;;;;;2073415;28;20057;-84
2021/05/22 03:31:31;;;;;;;3.05;0.68;;;11.20;72.30;;;;;;2082232;28;20021;-85
2021/05/22 03:32:31;;;;;;;1.67;0.50;;;11.20;72.20;;;;;;2082105;28;20125;-85
2021/05/22 03:33:32;;;;;;;3.58;0.50;;;11.20;72.20;;;;;;2073444;28;20028;-85
2021/05/22 03:34:33;;;;;;;2.25;0.60;;;11.20;72.20;;;;;;2056773;28;20122;-85
2021/05/22 03:35:33;;;;;;;1.35;0.50;;;11.20;72.20;;;;;;2056886;28;20035;-85
2021/05/22 03:36:34;;;;;;;2.30;0.40;;;11.20;72.10;;;;;;2085182;28;20510;-85
2021/05/22 03:37:35;;;;;;;2.60;0.50;;;11.20;72.10;;;;;;2073665;28;20026;-85
2021/05/22 03:38:35;;;;;;;2.88;0.57;;;11.30;72.10;;;;;;2073451;28;20037;-85
2021/05/22 03:39:36;;;;;;;2.50;0.60;;;11.30;72.10;;;;;;2082112;28;20368;-85
2021/05/22 03:40:37;;;;;;;2.78;0.40;;;11.30;72.10;;;;;;2073261;28;20040;-85
2021/05/22 03:41:37;;;;;;;3.15;0.60;;;11.30;72.10;;;;;;2073279;28;20037;-85
2021/05/22 03:42:38;;;;;;;2.00;0.50;;;11.30;72.10;;;;;;2081315;28;20033;-85
2021/05/22 03:43:39;;;;;;;3.88;0.50;;;11.30;72.10;;;;;;2073312;28;20034;-85
2021/05/22 03:44:39;;;;;;;1.83;0.45;;;11.30;72.10;;;;;;2072880;28;20092;-84
2021/05/22 03:45:40;;;;;;;4.05;0.85;;;11.30;72.10;;;;;;2076820;28;20029;-85
2021/05/22 03:46:41;;;;;;;2.67;0.60;;;11.30;72.00;;;;;;2056833;28;20453;-85
2021/05/22 03:47:41;;;;;;;2.88;0.50;;;11.30;72.00;;;;;;2057345;28;20045;-85
2021/05/22 03:48:43;;;;;;;4.15;0.70;;;11.30;72.00;;;;;;2065010;28;20038;-85
2021/05/22 03:49:44;;;;;;;4.68;0.65;;;11.30;72.10;;;;;;2064931;28;20517;-84
2021/05/22 03:50:45;;;;;;;3.88;0.80;;;11.30;72.00;;;;;;2073098;28;20034;-85
2021/05/22 03:51:46;;;;;;;2.35;0.60;;;11.30;72.00;;;;;;2081460;28;20018;-85
2021/05/22 03:52:47;;;;;;;2.67;0.60;;;11.30;72.00;;;;;;2072800;28;20034;-84
2021/05/22 03:53:47;;;;;;;5.05;1.08;;;11.30;72.00;;;;;;2064926;28;20026;-85
2021/05/22 03:54:48;;;;;;;3.33;0.52;;;11.30;72.00;;;;;;2073401;28;20080;-84
2021/05/22 03:55:49;;;;;;;2.55;0.40;;;11.30;72.00;;;;;;2080922;28;20120;-85
2021/05/22 03:56:49;;;;;;;3.70;0.80;;;11.30;72.00;;;;;;2073269;28;20093;-85
2021/05/22 03:57:50;;;;;;;2.20;0.55;;;11.30;72.00;;;;;;2073305;28;20103;-86
2021/05/22 03:58:53;;;;;;;4.07;0.60;;;11.40;72.10;;;;;;2073267;28;20113;-85
2021/05/22 03:59:54;;;;;;;2.13;0.40;;;11.30;72.10;;;;;;2081581;28;20022;-85
2021/05/22 04:00:55;;;;;;;2.13;0.57;;;11.30;72.10;;;;;;2073088;28;20037;-85
2021/05/22 04:01:56;;;;;;;1.13;0.30;;;11.30;72.10;;;;;;2057194;28;20461;-86
2021/05/22 04:02:56;;;;;;;3.10;0.45;;;11.30;72.10;;;;;;2058151;28;20046;-85
2021/05/22 04:03:57;;;;;;;2.67;0.68;;;11.30;72.10;;;;;;2057257;28;20022;-85
2021/05/22 04:04:58;;;;;;;2.28;0.60;;;11.30;72.20;;;;;;2064324;28;20022;-85
2021/05/22 04:05:59;;;;;;;2.40;0.50;;;11.30;72.10;;;;;;2064742;28;20037;-85
2021/05/22 04:07:00;;;;;;;3.03;0.57;;;11.30;72.30;;;;;;2065151;28;20027;-85
2021/05/22 04:08:02;;;;;;;2.58;0.70;;;11.40;72.30;;;;;;2057187;28;20042;-85
2021/05/22 04:09:04;;;;;;;3.15;0.60;;;11.30;72.30;;;;;;2065552;28;20447;-85
2021/05/22 04:10:05;;;;;;;1.95;0.40;;;11.30;72.30;;;;;;2073274;28;20076;-85
2021/05/22 04:11:07;;;;;;;2.15;0.50;;;11.40;72.30;;;;;;2073014;28;20034;-84
2021/05/22 04:12:08;;;;;;;3.42;0.50;;;11.40;72.30;;;;;;2073246;28;20113;-85
2021/05/22 04:13:09;;;;;;;1.73;0.50;;;11.40;72.30;;;;;;2072929;28;20416;-85
2021/05/22 04:14:09;;;;;;;2.50;0.47;;;11.40;72.40;;;;;;2081256;28;20587;-85
2021/05/22 04:15:11;;;;;;;2.67;0.50;;;11.40;72.40;;;;;;2056870;28;20031;-84
2021/05/22 04:16:12;;;;;;;3.25;0.70;;;11.40;72.40;;;;;;2057595;28;20061;-84
2021/05/22 04:17:13;;;;;;;1.75;0.45;;;11.40;72.40;;;;;;2081148;28;20510;-85
2021/05/22 04:18:13;;;;;;;2.88;0.45;;;11.40;72.40;;;;;;2073032;28;20034;-85
2021/05/22 04:19:14;;;;;;;3.42;0.68;;;11.40;72.40;;;;;;2072149;28;20057;-84
2021/05/22 04:20:15;;;;;;;3.08;0.75;;;11.40;72.40;;;;;;2056883;28;20033;-84
2021/05/22 04:21:16;;;;;;;2.97;0.60;;;11.40;72.40;;;;;;2063928;28;20026;-85
2021/05/22 04:22:16;;;;;;;2.92;0.50;;;11.40;72.50;;;;;;2080998;28;20096;-85
2021/05/22 04:23:17;;;;;;;2.67;0.40;;;11.40;72.50;;;;;;2081300;28;20048;-85
2021/05/22 04:24:18;;;;;;;1.80;0.43;;;11.40;72.60;;;;;;2073153;28;20144;-84
2021/05/22 04:25:19;;;;;;;1.67;0.40;;;11.40;72.50;;;;;;2081286;28;20026;-85
2021/05/22 04:26:19;;;;;;;3.15;0.60;;;11.40;72.50;;;;;;2065018;28;20026;-85
2021/05/22 04:27:20;;;;;;;3.50;0.60;;;11.40;72.60;;;;;;2072930;28;20038;-84
2021/05/22 04:28:21;;;;;;;3.00;0.52;;;11.40;72.60;;;;;;2073094;28;20116;-85
2021/05/22 04:29:21;;;;;;;3.45;0.60;;;11.40;72.60;;;;;;2073171;28;20029;-84
2021/05/22 04:30:22;;;;;;;2.55;0.70;;;11.40;72.60;;;;;;2081253;28;20057;-85
2021/05/22 04:31:23;;;;;;;3.47;0.70;;;11.40;72.60;;;;;;2073018;28;20053;-85
2021/05/22 04:32:24;;;;;;;2.78;0.60;;;11.40;72.70;;;;;;2073011;28;20054;-84
2021/05/22 04:33:24;;;;;;;2.30;0.50;;;11.40;72.70;;;;;;2072796;28;20033;-84
2021/05/22 04:34:25;;;;;;;2.75;0.60;;;11.40;72.80;;;;;;2073073;28;20060;-84
2021/05/22 04:35:26;;;;;;;3.17;0.80;;;11.40;72.90;;;;;;2073093;28;20455;-85
2021/05/22 04:36:26;;;;;;;2.30;0.70;;;11.30;73.00;;;;;;2072482;28;20034;-85
2021/05/22 04:37:28;;;;;;;3.38;0.80;;;11.30;73.10;;;;;;2064444;28;20045;-85
2021/05/22 04:38:28;;;;;;;3.40;0.60;;;11.30;73.20;;;;;;2064613;28;20034;-84
2021/05/22 04:39:29;;;;;;;3.13;0.80;;;11.30;73.30;;;;;;2056946;28;20031;-84
2021/05/22 04:40:29;;;;;;;2.70;0.63;;;11.30;73.50;;;;;;2064797;28;20065;-85
2021/05/22 04:41:30;;;;;;;2.88;0.70;;;11.20;73.60;;;;;;2064879;28;20430;-85
2021/05/22 04:42:31;;;;;;;4.40;0.60;;;11.20;73.70;;;;;;2072887;28;20049;-85
2021/05/22 04:43:32;;;;;;;1.85;0.60;;;11.20;73.80;;;;;;2073033;28;20048;-85
2021/05/22 04:44:32;;;;;;;3.55;0.52;;;11.20;74.00;;;;;;2081183;28;20551;-85
2021/05/22 04:45:34;;;;;;;2.13;0.50;;;11.10;74.00;;;;;;2072904;28;20030;-85
2021/05/22 04:46:35;;;;;;;3.85;0.65;;;11.10;74.10;;;;;;2064658;28;20045;-84
2021/05/22 04:47:38;;;;;;;2.25;0.40;;;11.20;74.30;;;;;;2073228;28;20120;-85
2021/05/22 04:48:38;;;;;;;5.70;1.17;;;11.10;74.40;;;;;;2073023;28;20022;-85
2021/05/22 04:49:39;;;;;;;2.53;0.75;;;11.10;74.50;;;;;;2073167;28;20110;-84
2021/05/22 04:50:39;;;;;;;2.67;0.60;;;11.10;74.60;;;;;;2072910;28;20022;-85
2021/05/22 04:51:41;;;;;;;2.42;0.47;;;11.10;74.70;;;;;;2072867;28;20033;-85
2021/05/22 04:52:42;;;;;;;2.40;0.57;;;11.10;74.90;;;;;;2072949;28;20416;-85
2021/05/22 04:53:44;;;;;;;2.63;0.60;;;11.00;74.90;;;;;;2076331;28;20036;-84
2021/05/22 04:54:45;;;;;;;2.45;0.63;;;11.00;75.10;;;;;;2072864;28;20116;-84
2021/05/22 04:55:45;;;;;;;2.65;0.70;;;11.00;75.90;;;;;;2057061;28;20045;-84
2021/05/22 04:56:46;;;;;;;4.35;0.85;;;10.90;75.50;;;;;;2064702;28;20487;-84
2021/05/22 04:57:47;;;;;;;4.60;0.80;;;10.90;75.80;;;;;;2064874;28;20224;-85
2021/05/22 04:58:47;;;;;;;2.97;0.60;;;10.90;76.00;;;;;;2072933;28;20074;-85
2021/05/22 04:59:48;;;;;;;3.97;0.70;;;10.80;76.20;;;;;;2064684;28;20052;-84
2021/05/22 05:00:48;;;;;;;4.28;0.80;;;10.80;76.50;;;;;;2064798;28;20484;-85
2021/05/22 05:01:49;;;;;;;2.97;0.80;;;10.70;76.80;;;;;;2081033;28;20483;-84
2021/05/22 05:02:51;;;;;;;3.40;0.82;;;10.70;77.00;;;;;;2080765;28;20042;-84
2021/05/22 05:03:52;;;;;;;3.30;0.80;;;10.60;77.50;;;;;;2073105;28;20059;-85
2021/05/22 05:04:52;;;;;;;4.03;0.85;;;10.60;77.50;;;;;;2064366;28;20037;-84
2021/05/22 05:05:53;;;;;;;2.88;0.60;;;10.60;77.60;;;;;;2072866;28;20072;-84
2021/05/22 05:06:54;;;;;;;2.83;0.80;;;10.50;77.60;;;;;;2085797;28;20033;-84
2021/05/22 05:07:54;;;;;;;4.32;0.90;;;10.50;77.90;;;;;;2073469;28;20030;-85
2021/05/22 05:08:55;;;;;;;3.13;0.70;;;10.50;78.00;;;;;;2079124;28;20034;-84
2021/05/22 05:09:56;;;;;;;4.28;0.80;;;10.50;78.10;;;;;;2080675;28;20044;-84
2021/05/22 05:10:58;;;;;;;3.20;0.85;;;10.40;78.20;;;;;;2071839;28;20022;-85
2021/05/22 05:12:04;;;;;;;3.13;0.90;;;10.40;78.40;;;;;;2081105;28;20519;-84
2021/05/22 05:13:04;;;;;;;2.80;0.80;;;10.40;78.70;;;;;;2080848;28;20109;-85
2021/05/22 05:14:05;;;;;;;3.72;0.80;;;10.40;78.70;;;;;;2073243;28;20034;-85
2021/05/22 05:15:07;;;;;;;3.85;0.80;;;10.40;78.80;;;;;;2064676;28;20026;-84
2021/05/22 05:16:08;;;;;;;3.40;0.60;;;10.40;78.90;;;;;;2072958;28;20061;-84
2021/05/22 05:17:10;;;;;;;3.42;0.77;;;10.40;79.10;;;;;;2072943;28;20036;-85
2021/05/22 05:18:11;;;;;;;4.15;0.68;;;10.40;79.10;;;;;;2073022;28;20121;-85
2021/05/22 05:19:11;;;;;;;3.40;0.82;;;10.30;79.10;;;;;;2064670;28;20027;-84
2021/05/22 05:20:12;;;;;;;1.90;0.60;;;10.30;79.30;;;;;;2056717;28;20078;-85
2021/05/22 05:21:13;;;;;;;3.55;0.90;;;10.30;79.40;;;;;;2048515;28;20457;-85
2021/05/22 05:22:14;;;;;;;3.28;0.82;;;10.30;79.40;;;;;;2056647;28;20065;-84